sensor_id;sensor_type;location;lat;lon;timestamp;temperature;humidity
3172;DHT22;1597;51.572;6.992;2022-07-06T00:01:46;16.10;81.30
3172;DHT22;1597;51.572;6.992;2022-07-06T00:04:12;16.00;80.00
3172;DHT22;1597;51.572;6.992;2022-07-06T00:06:38;15.90;81.50
3172;DHT22;1597;51.572;6.992;2022-07-06T00:09:05;15.90;80.70
3172;DHT22;1597;51.572;6.992;2022-07-06T00:11:32;15.80;81.80
3172;DHT22;1597;51.572;6.992;2022-07-06T00:13:58;15.80;80.70
3172;DHT22;1597;51.572;6.992;2022-07-06T00:16:24;15.80;81.50
3172;DHT22;1597;51.572;6.992;2022-07-06T00:18:50;15.80;79.70
3172;DHT22;1597;51.572;6.992;2022-07-06T00:21:16;15.80;78.00
3172;DHT22;1597;51.572;6.992;2022-07-06T00:23:43;15.70;82.10
3172;DHT22;1597;51.572;6.992;2022-07-06T00:26:09;15.70;82.40
3172;DHT22;1597;51.572;6.992;2022-07-06T00:28:35;15.60;81.00
3172;DHT22;1597;51.572;6.992;2022-07-06T00:31:01;15.70;81.80
3172;DHT22;1597;51.572;6.992;2022-07-06T00:33:26;15.70;80.00
3172;DHT22;1597;51.572;6.992;2022-07-06T00:35:52;15.70;81.70
3172;DHT22;1597;51.572;6.992;2022-07-06T00:38:18;15.50;82.10
3172;DHT22;1597;51.572;6.992;2022-07-06T00:40:44;15.50;83.50
3172;DHT22;1597;51.572;6.992;2022-07-06T00:43:10;15.50;85.30
3172;DHT22;1597;51.572;6.992;2022-07-06T00:45:36;15.50;84.60
3172;DHT22;1597;51.572;6.992;2022-07-06T00:48:02;15.50;83.80
3172;DHT22;1597;51.572;6.992;2022-07-06T00:50:28;15.50;82.60
3172;DHT22;1597;51.572;6.992;2022-07-06T00:52:55;15.50;83.80
3172;DHT22;1597;51.572;6.992;2022-07-06T00:55:26;15.60;82.90
3172;DHT22;1597;51.572;6.992;2022-07-06T00:57:54;15.60;82.10
3172;DHT22;1597;51.572;6.992;2022-07-06T01:00:23;15.60;80.10
3172;DHT22;1597;51.572;6.992;2022-07-06T01:02:50;15.60;80.90
3172;DHT22;1597;51.572;6.992;2022-07-06T01:05:17;15.60;82.20
3172;DHT22;1597;51.572;6.992;2022-07-06T01:07:45;15.60;85.20
3172;DHT22;1597;51.572;6.992;2022-07-06T01:10:13;15.50;84.90
3172;DHT22;1597;51.572;6.992;2022-07-06T01:12:42;15.50;88.10
3172;DHT22;1597;51.572;6.992;2022-07-06T01:15:18;15.40;90.20
3172;DHT22;1597;51.572;6.992;2022-07-06T01:17:45;15.40;90.10
3172;DHT22;1597;51.572;6.992;2022-07-06T01:20:15;15.40;92.00
3172;DHT22;1597;51.572;6.992;2022-07-06T01:22:43;15.40;90.80
3172;DHT22;1597;51.572;6.992;2022-07-06T01:25:10;15.40;90.10
3172;DHT22;1597;51.572;6.992;2022-07-06T01:27:38;15.40;90.70
3172;DHT22;1597;51.572;6.992;2022-07-06T01:30:13;15.50;91.30
3172;DHT22;1597;51.572;6.992;2022-07-06T01:32:41;15.50;91.40
3172;DHT22;1597;51.572;6.992;2022-07-06T01:35:10;15.40;92.20
3172;DHT22;1597;51.572;6.992;2022-07-06T01:37:37;15.30;92.50
3172;DHT22;1597;51.572;6.992;2022-07-06T01:40:06;15.30;93.30
3172;DHT22;1597;51.572;6.992;2022-07-06T01:42:33;15.30;94.00
3172;DHT22;1597;51.572;6.992;2022-07-06T01:45:00;15.10;96.10
3172;DHT22;1597;51.572;6.992;2022-07-06T01:47:27;15.10;96.20
3172;DHT22;1597;51.572;6.992;2022-07-06T01:49:52;15.10;96.20
3172;DHT22;1597;51.572;6.992;2022-07-06T01:52:18;15.00;96.50
3172;DHT22;1597;51.572;6.992;2022-07-06T01:54:44;15.10;96.60
3172;DHT22;1597;51.572;6.992;2022-07-06T01:57:10;15.10;96.20
3172;DHT22;1597;51.572;6.992;2022-07-06T01:59:36;15.10;97.10
3172;DHT22;1597;51.572;6.992;2022-07-06T02:02:02;15.10;97.40
3172;DHT22;1597;51.572;6.992;2022-07-06T02:04:28;15.20;96.70
3172;DHT22;1597;51.572;6.992;2022-07-06T02:06:53;15.20;97.00
3172;DHT22;1597;51.572;6.992;2022-07-06T02:09:19;15.20;95.60
3172;DHT22;1597;51.572;6.992;2022-07-06T02:11:45;15.20;95.90
3172;DHT22;1597;51.572;6.992;2022-07-06T02:14:11;15.20;96.20
3172;DHT22;1597;51.572;6.992;2022-07-06T02:16:37;15.20;96.50
3172;DHT22;1597;51.572;6.992;2022-07-06T02:19:03;15.10;97.00
3172;DHT22;1597;51.572;6.992;2022-07-06T02:21:29;15.10;97.40
3172;DHT22;1597;51.572;6.992;2022-07-06T02:23:55;15.10;97.60
3172;DHT22;1597;51.572;6.992;2022-07-06T02:26:20;15.10;97.50
3172;DHT22;1597;51.572;6.992;2022-07-06T02:28:46;15.00;98.10
3172;DHT22;1597;51.572;6.992;2022-07-06T02:31:13;15.00;98.50
3172;DHT22;1597;51.572;6.992;2022-07-06T02:33:40;15.00;97.90
3172;DHT22;1597;51.572;6.992;2022-07-06T02:36:06;15.00;99.80
3172;DHT22;1597;51.572;6.992;2022-07-06T02:38:32;15.00;99.10
3172;DHT22;1597;51.572;6.992;2022-07-06T02:40:58;14.90;99.40
3172;DHT22;1597;51.572;6.992;2022-07-06T02:43:24;14.80;99.90
3172;DHT22;1597;51.572;6.992;2022-07-06T02:45:50;14.80;99.90
3172;DHT22;1597;51.572;6.992;2022-07-06T02:48:16;14.80;99.80
3172;DHT22;1597;51.572;6.992;2022-07-06T02:50:44;14.80;99.90
3172;DHT22;1597;51.572;6.992;2022-07-06T02:53:10;14.80;99.90
3172;DHT22;1597;51.572;6.992;2022-07-06T02:55:36;14.70;99.90
3172;DHT22;1597;51.572;6.992;2022-07-06T02:58:02;14.80;99.90
3172;DHT22;1597;51.572;6.992;2022-07-06T03:00:28;14.80;99.90
3172;DHT22;1597;51.572;6.992;2022-07-06T03:02:54;14.90;99.90
3172;DHT22;1597;51.572;6.992;2022-07-06T03:05:20;14.90;99.90
3172;DHT22;1597;51.572;6.992;2022-07-06T03:07:45;14.80;99.30
3172;DHT22;1597;51.572;6.992;2022-07-06T03:10:11;14.80;99.50
3172;DHT22;1597;51.572;6.992;2022-07-06T03:12:37;14.70;99.90
3172;DHT22;1597;51.572;6.992;2022-07-06T03:15:03;14.70;99.90
3172;DHT22;1597;51.572;6.992;2022-07-06T03:17:29;14.70;99.90
3172;DHT22;1597;51.572;6.992;2022-07-06T03:19:55;14.70;99.90
3172;DHT22;1597;51.572;6.992;2022-07-06T03:22:20;14.60;99.90
3172;DHT22;1597;51.572;6.992;2022-07-06T03:24:46;14.70;99.90
3172;DHT22;1597;51.572;6.992;2022-07-06T03:27:12;14.70;99.90
3172;DHT22;1597;51.572;6.992;2022-07-06T03:29:38;14.60;99.90
3172;DHT22;1597;51.572;6.992;2022-07-06T03:32:04;14.60;99.90
3172;DHT22;1597;51.572;6.992;2022-07-06T03:34:30;14.60;99.90
3172;DHT22;1597;51.572;6.992;2022-07-06T03:36:55;14.70;99.90
3172;DHT22;1597;51.572;6.992;2022-07-06T03:39:21;14.60;99.90
3172;DHT22;1597;51.572;6.992;2022-07-06T03:41:47;14.60;99.90
3172;DHT22;1597;51.572;6.992;2022-07-06T03:44:13;14.70;99.90
3172;DHT22;1597;51.572;6.992;2022-07-06T03:46:38;14.60;99.90
3172;DHT22;1597;51.572;6.992;2022-07-06T03:49:04;14.60;99.90
3172;DHT22;1597;51.572;6.992;2022-07-06T03:51:30;14.60;99.90
3172;DHT22;1597;51.572;6.992;2022-07-06T03:53:56;14.50;99.90
3172;DHT22;1597;51.572;6.992;2022-07-06T03:56:22;14.50;99.90
3172;DHT22;1597;51.572;6.992;2022-07-06T03:58:55;14.50;99.90
3172;DHT22;1597;51.572;6.992;2022-07-06T04:01:21;14.40;99.90
3172;DHT22;1597;51.572;6.992;2022-07-06T04:03:47;14.50;99.90
3172;DHT22;1597;51.572;6.992;2022-07-06T04:06:13;14.40;99.90
3172;DHT22;1597;51.572;6.992;2022-07-06T04:08:39;14.50;99.90
3172;DHT22;1597;51.572;6.992;2022-07-06T04:11:05;14.50;99.90
3172;DHT22;1597;51.572;6.992;2022-07-06T04:13:31;14.50;99.90
3172;DHT22;1597;51.572;6.992;2022-07-06T04:15:57;14.50;99.90
3172;DHT22;1597;51.572;6.992;2022-07-06T04:18:24;14.40;99.90
3172;DHT22;1597;51.572;6.992;2022-07-06T04:20:49;14.40;99.90
3172;DHT22;1597;51.572;6.992;2022-07-06T04:23:15;14.40;99.90
3172;DHT22;1597;51.572;6.992;2022-07-06T04:25:41;14.40;99.90
3172;DHT22;1597;51.572;6.992;2022-07-06T04:28:07;14.50;99.90
3172;DHT22;1597;51.572;6.992;2022-07-06T04:30:33;14.50;99.90
3172;DHT22;1597;51.572;6.992;2022-07-06T04:32:59;14.40;99.90
3172;DHT22;1597;51.572;6.992;2022-07-06T04:35:25;14.40;99.90
3172;DHT22;1597;51.572;6.992;2022-07-06T04:37:51;14.40;99.90
3172;DHT22;1597;51.572;6.992;2022-07-06T04:40:17;14.40;99.90
3172;DHT22;1597;51.572;6.992;2022-07-06T04:42:43;14.40;99.90
3172;DHT22;1597;51.572;6.992;2022-07-06T04:45:09;14.40;99.90
3172;DHT22;1597;51.572;6.992;2022-07-06T04:47:36;14.40;99.90
3172;DHT22;1597;51.572;6.992;2022-07-06T04:50:02;14.40;99.90
3172;DHT22;1597;51.572;6.992;2022-07-06T04:52:29;14.40;99.90
3172;DHT22;1597;51.572;6.992;2022-07-06T04:54:55;14.40;99.90
3172;DHT22;1597;51.572;6.992;2022-07-06T04:57:21;14.50;99.90
3172;DHT22;1597;51.572;6.992;2022-07-06T04:59:47;14.50;99.90
3172;DHT22;1597;51.572;6.992;2022-07-06T05:02:13;14.50;99.90
3172;DHT22;1597;51.572;6.992;2022-07-06T05:04:39;14.50;99.90
3172;DHT22;1597;51.572;6.992;2022-07-06T05:07:05;14.50;99.90
3172;DHT22;1597;51.572;6.992;2022-07-06T05:09:31;14.60;99.90
3172;DHT22;1597;51.572;6.992;2022-07-06T05:11:57;14.60;99.90
3172;DHT22;1597;51.572;6.992;2022-07-06T05:14:23;14.70;99.90
3172;DHT22;1597;51.572;6.992;2022-07-06T05:16:48;14.80;99.90
3172;DHT22;1597;51.572;6.992;2022-07-06T05:19:14;14.80;99.90
3172;DHT22;1597;51.572;6.992;2022-07-06T05:21:40;14.90;99.90
3172;DHT22;1597;51.572;6.992;2022-07-06T05:24:06;14.90;99.90
3172;DHT22;1597;51.572;6.992;2022-07-06T05:26:32;14.90;99.90
3172;DHT22;1597;51.572;6.992;2022-07-06T05:28:58;14.80;99.90
3172;DHT22;1597;51.572;6.992;2022-07-06T05:31:25;14.90;99.90
3172;DHT22;1597;51.572;6.992;2022-07-06T05:33:50;15.00;99.90
3172;DHT22;1597;51.572;6.992;2022-07-06T05:36:16;15.00;99.90
3172;DHT22;1597;51.572;6.992;2022-07-06T05:38:42;15.10;99.90
3172;DHT22;1597;51.572;6.992;2022-07-06T05:41:08;15.10;99.90
3172;DHT22;1597;51.572;6.992;2022-07-06T05:43:37;15.00;99.90
3172;DHT22;1597;51.572;6.992;2022-07-06T05:46:03;15.00;99.90
3172;DHT22;1597;51.572;6.992;2022-07-06T05:48:30;15.10;99.90
3172;DHT22;1597;51.572;6.992;2022-07-06T05:51:14;15.20;99.90
3172;DHT22;1597;51.572;6.992;2022-07-06T05:53:41;15.30;99.90
3172;DHT22;1597;51.572;6.992;2022-07-06T05:56:06;15.40;99.90
3172;DHT22;1597;51.572;6.992;2022-07-06T05:58:32;15.50;99.90
3172;DHT22;1597;51.572;6.992;2022-07-06T06:00:58;15.50;99.90
3172;DHT22;1597;51.572;6.992;2022-07-06T06:03:24;15.60;99.90
3172;DHT22;1597;51.572;6.992;2022-07-06T06:05:50;15.60;99.90
3172;DHT22;1597;51.572;6.992;2022-07-06T06:08:16;15.70;99.90
3172;DHT22;1597;51.572;6.992;2022-07-06T06:10:43;15.70;99.90
3172;DHT22;1597;51.572;6.992;2022-07-06T06:13:09;15.70;99.90
3172;DHT22;1597;51.572;6.992;2022-07-06T06:15:35;15.70;99.90
3172;DHT22;1597;51.572;6.992;2022-07-06T06:18:01;15.70;99.90
3172;DHT22;1597;51.572;6.992;2022-07-06T06:20:29;15.70;99.90
3172;DHT22;1597;51.572;6.992;2022-07-06T06:22:57;15.80;99.90
3172;DHT22;1597;51.572;6.992;2022-07-06T06:25:32;16.00;98.70
3172;DHT22;1597;51.572;6.992;2022-07-06T06:27:58;16.00;99.20
3172;DHT22;1597;51.572;6.992;2022-07-06T06:30:24;16.10;98.40
3172;DHT22;1597;51.572;6.992;2022-07-06T06:32:51;16.20;96.80
3172;DHT22;1597;51.572;6.992;2022-07-06T06:35:17;16.20;97.60
3172;DHT22;1597;51.572;6.992;2022-07-06T06:37:43;16.30;96.00
3172;DHT22;1597;51.572;6.992;2022-07-06T06:40:10;16.30;94.80
3172;DHT22;1597;51.572;6.992;2022-07-06T06:42:36;16.20;94.60
3172;DHT22;1597;51.572;6.992;2022-07-06T06:45:06;16.40;95.10
3172;DHT22;1597;51.572;6.992;2022-07-06T06:47:32;16.50;95.00
3172;DHT22;1597;51.572;6.992;2022-07-06T06:49:58;16.60;94.90
3172;DHT22;1597;51.572;6.992;2022-07-06T06:52:23;16.70;92.90
3172;DHT22;1597;51.572;6.992;2022-07-06T06:54:49;16.70;85.70
3172;DHT22;1597;51.572;6.992;2022-07-06T06:57:15;16.80;86.40
3172;DHT22;1597;51.572;6.992;2022-07-06T06:59:41;16.90;86.30
3172;DHT22;1597;51.572;6.992;2022-07-06T07:02:07;16.90;87.00
3172;DHT22;1597;51.572;6.992;2022-07-06T07:04:33;17.00;85.70
3172;DHT22;1597;51.572;6.992;2022-07-06T07:06:58;17.10;77.60
3172;DHT22;1597;51.572;6.992;2022-07-06T07:09:24;17.10;63.20
3172;DHT22;1597;51.572;6.992;2022-07-06T07:11:50;17.00;63.60
3172;DHT22;1597;51.572;6.992;2022-07-06T07:14:16;17.00;65.60
3172;DHT22;1597;51.572;6.992;2022-07-06T07:16:42;17.10;70.30
3172;DHT22;1597;51.572;6.992;2022-07-06T07:19:08;17.20;65.70
3172;DHT22;1597;51.572;6.992;2022-07-06T07:21:35;17.10;64.50
3172;DHT22;1597;51.572;6.992;2022-07-06T07:24:01;17.10;65.80
3172;DHT22;1597;51.572;6.992;2022-07-06T07:26:27;17.10;64.90
3172;DHT22;1597;51.572;6.992;2022-07-06T07:28:52;17.10;67.90
3172;DHT22;1597;51.572;6.992;2022-07-06T07:31:19;17.20;62.70
3172;DHT22;1597;51.572;6.992;2022-07-06T07:33:44;17.30;58.00
3172;DHT22;1597;51.572;6.992;2022-07-06T07:36:10;17.30;55.40
3172;DHT22;1597;51.572;6.992;2022-07-06T07:38:36;17.50;50.70
3172;DHT22;1597;51.572;6.992;2022-07-06T07:41:02;17.60;42.10
3172;DHT22;1597;51.572;6.992;2022-07-06T07:43:29;17.60;40.40
3172;DHT22;1597;51.572;6.992;2022-07-06T07:45:55;17.70;31.60
3172;DHT22;1597;51.572;6.992;2022-07-06T07:48:21;17.80;27.90
3172;DHT22;1597;51.572;6.992;2022-07-06T07:50:48;17.80;25.10
3172;DHT22;1597;51.572;6.992;2022-07-06T07:53:14;17.90;26.40
3172;DHT22;1597;51.572;6.992;2022-07-06T07:55:40;17.90;26.00
3172;DHT22;1597;51.572;6.992;2022-07-06T07:58:09;17.90;26.00
3172;DHT22;1597;51.572;6.992;2022-07-06T08:00:35;18.00;23.30
3172;DHT22;1597;51.572;6.992;2022-07-06T08:03:00;18.10;22.40
3172;DHT22;1597;51.572;6.992;2022-07-06T08:05:27;18.20;18.30
3172;DHT22;1597;51.572;6.992;2022-07-06T08:07:54;18.20;15.30
3172;DHT22;1597;51.572;6.992;2022-07-06T08:10:21;18.20;7.80
3172;DHT22;1597;51.572;6.992;2022-07-06T08:12:47;18.20;11.50
3172;DHT22;1597;51.572;6.992;2022-07-06T08:15:13;18.20;14.60
3172;DHT22;1597;51.572;6.992;2022-07-06T08:17:40;18.30;16.20
3172;DHT22;1597;51.572;6.992;2022-07-06T08:20:07;18.30;11.80
3172;DHT22;1597;51.572;6.992;2022-07-06T08:22:36;18.40;5.70
3172;DHT22;1597;51.572;6.992;2022-07-06T08:25:03;18.50;5.30
3172;DHT22;1597;51.572;6.992;2022-07-06T08:27:30;18.50;6.50
3172;DHT22;1597;51.572;6.992;2022-07-06T08:29:57;18.50;8.70
3172;DHT22;1597;51.572;6.992;2022-07-06T08:32:23;18.50;12.20
3172;DHT22;1597;51.572;6.992;2022-07-06T08:34:49;18.40;12.40
3172;DHT22;1597;51.572;6.992;2022-07-06T08:37:14;18.30;13.50
3172;DHT22;1597;51.572;6.992;2022-07-06T08:39:40;18.30;3.90
3172;DHT22;1597;51.572;6.992;2022-07-06T08:42:07;18.30;1.00
3172;DHT22;1597;51.572;6.992;2022-07-06T08:44:36;18.40;1.00
3172;DHT22;1597;51.572;6.992;2022-07-06T08:47:06;18.50;1.00
3172;DHT22;1597;51.572;6.992;2022-07-06T08:49:33;18.60;1.00
3172;DHT22;1597;51.572;6.992;2022-07-06T08:52:00;18.50;1.60
3172;DHT22;1597;51.572;6.992;2022-07-06T08:54:28;18.50;8.60
3172;DHT22;1597;51.572;6.992;2022-07-06T08:56:54;18.40;7.30
3172;DHT22;1597;51.572;6.992;2022-07-06T08:59:21;18.50;9.00
3172;DHT22;1597;51.572;6.992;2022-07-06T09:01:48;18.40;11.30
3172;DHT22;1597;51.572;6.992;2022-07-06T09:04:17;18.40;1.00
3172;DHT22;1597;51.572;6.992;2022-07-06T09:06:46;18.50;1.00
3172;DHT22;1597;51.572;6.992;2022-07-06T09:09:19;18.40;1.00
3172;DHT22;1597;51.572;6.992;2022-07-06T09:11:50;18.40;1.00
3172;DHT22;1597;51.572;6.992;2022-07-06T09:14:17;18.40;3.20
3172;DHT22;1597;51.572;6.992;2022-07-06T09:16:52;18.40;6.60
3172;DHT22;1597;51.572;6.992;2022-07-06T09:19:27;18.40;5.80
3172;DHT22;1597;51.572;6.992;2022-07-06T09:21:55;18.50;3.60
3172;DHT22;1597;51.572;6.992;2022-07-06T09:24:21;18.50;1.00
3172;DHT22;1597;51.572;6.992;2022-07-06T09:26:48;18.60;1.70
3172;DHT22;1597;51.572;6.992;2022-07-06T09:29:14;18.60;1.00
3172;DHT22;1597;51.572;6.992;2022-07-06T09:31:40;18.60;1.00
3172;DHT22;1597;51.572;6.992;2022-07-06T09:34:08;18.80;1.00
3172;DHT22;1597;51.572;6.992;2022-07-06T09:36:41;19.00;1.00
3172;DHT22;1597;51.572;6.992;2022-07-06T09:39:22;19.10;1.00
3172;DHT22;1597;51.572;6.992;2022-07-06T09:41:58;19.10;1.00
3172;DHT22;1597;51.572;6.992;2022-07-06T09:44:32;19.10;1.00
3172;DHT22;1597;51.572;6.992;2022-07-06T09:47:04;19.10;1.00
3172;DHT22;1597;51.572;6.992;2022-07-06T09:49:32;19.00;1.00
3172;DHT22;1597;51.572;6.992;2022-07-06T09:52:05;19.00;1.00
3172;DHT22;1597;51.572;6.992;2022-07-06T09:54:34;18.90;1.00
3172;DHT22;1597;51.572;6.992;2022-07-06T09:57:01;18.90;1.00
3172;DHT22;1597;51.572;6.992;2022-07-06T09:59:28;19.00;1.00
3172;DHT22;1597;51.572;6.992;2022-07-06T10:02:03;19.10;1.00
3172;DHT22;1597;51.572;6.992;2022-07-06T10:04:31;19.20;1.00
3172;DHT22;1597;51.572;6.992;2022-07-06T10:06:59;19.20;1.00
3172;DHT22;1597;51.572;6.992;2022-07-06T10:09:27;19.30;1.00
3172;DHT22;1597;51.572;6.992;2022-07-06T10:11:57;19.40;1.00
3172;DHT22;1597;51.572;6.992;2022-07-06T10:14:32;19.60;1.00
3172;DHT22;1597;51.572;6.992;2022-07-06T10:17:03;19.50;1.00
3172;DHT22;1597;51.572;6.992;2022-07-06T10:19:31;19.60;1.00
3172;DHT22;1597;51.572;6.992;2022-07-06T10:22:00;19.50;1.00
3172;DHT22;1597;51.572;6.992;2022-07-06T10:24:29;19.50;1.00
3172;DHT22;1597;51.572;6.992;2022-07-06T10:26:56;19.50;1.00
3172;DHT22;1597;51.572;6.992;2022-07-06T10:29:23;19.50;1.00
3172;DHT22;1597;51.572;6.992;2022-07-06T10:31:50;19.40;1.00
3172;DHT22;1597;51.572;6.992;2022-07-06T10:34:19;19.40;1.00
3172;DHT22;1597;51.572;6.992;2022-07-06T10:36:49;19.50;1.00
3172;DHT22;1597;51.572;6.992;2022-07-06T10:39:32;19.60;1.00
3172;DHT22;1597;51.572;6.992;2022-07-06T10:45:07;20.00;1.00
3172;DHT22;1597;51.572;6.992;2022-07-06T10:47:35;20.10;1.00
3172;DHT22;1597;51.572;6.992;2022-07-06T10:50:02;20.30;1.00
3172;DHT22;1597;51.572;6.992;2022-07-06T10:55:32;20.30;1.00
3172;DHT22;1597;51.572;6.992;2022-07-06T10:58:03;20.30;1.00
3172;DHT22;1597;51.572;6.992;2022-07-06T11:00:51;20.30;1.00
3172;DHT22;1597;51.572;6.992;2022-07-06T11:03:48;20.10;1.00
3172;DHT22;1597;51.572;6.992;2022-07-06T11:06:23;20.10;1.00
3172;DHT22;1597;51.572;6.992;2022-07-06T11:09:10;19.80;1.00
3172;DHT22;1597;51.572;6.992;2022-07-06T11:11:43;19.70;1.00
3172;DHT22;1597;51.572;6.992;2022-07-06T11:14:14;19.90;1.00
3172;DHT22;1597;51.572;6.992;2022-07-06T11:19:22;20.20;1.00
3172;DHT22;1597;51.572;6.992;2022-07-06T11:21:56;20.20;1.00
3172;DHT22;1597;51.572;6.992;2022-07-06T11:24:31;20.20;1.00
3172;DHT22;1597;51.572;6.992;2022-07-06T11:26:59;20.10;1.00
3172;DHT22;1597;51.572;6.992;2022-07-06T11:29:28;20.10;1.00
3172;DHT22;1597;51.572;6.992;2022-07-06T11:31:58;20.10;1.00
3172;DHT22;1597;51.572;6.992;2022-07-06T11:34:34;20.10;1.00
3172;DHT22;1597;51.572;6.992;2022-07-06T11:37:08;20.20;1.00
3172;DHT22;1597;51.572;6.992;2022-07-06T11:39:37;20.40;1.00
3172;DHT22;1597;51.572;6.992;2022-07-06T11:42:08;20.60;1.00
3172;DHT22;1597;51.572;6.992;2022-07-06T11:44:35;20.80;1.00
3172;DHT22;1597;51.572;6.992;2022-07-06T11:47:02;20.90;1.00
3172;DHT22;1597;51.572;6.992;2022-07-06T11:49:30;20.90;1.00
3172;DHT22;1597;51.572;6.992;2022-07-06T11:51:57;21.00;1.00
3172;DHT22;1597;51.572;6.992;2022-07-06T11:54:24;21.00;1.00
3172;DHT22;1597;51.572;6.992;2022-07-06T11:56:59;21.00;1.00
3172;DHT22;1597;51.572;6.992;2022-07-06T11:59:28;21.00;1.00
3172;DHT22;1597;51.572;6.992;2022-07-06T12:02:08;20.70;1.00
3172;DHT22;1597;51.572;6.992;2022-07-06T12:04:43;20.50;1.00
3172;DHT22;1597;51.572;6.992;2022-07-06T12:07:13;20.60;1.00
3172;DHT22;1597;51.572;6.992;2022-07-06T12:09:42;20.70;1.00
3172;DHT22;1597;51.572;6.992;2022-07-06T12:12:10;20.80;1.00
3172;DHT22;1597;51.572;6.992;2022-07-06T12:14:38;21.00;1.00
3172;DHT22;1597;51.572;6.992;2022-07-06T12:17:15;21.20;1.00
3172;DHT22;1597;51.572;6.992;2022-07-06T12:19:41;21.00;1.00
3172;DHT22;1597;51.572;6.992;2022-07-06T12:22:09;20.90;1.00
3172;DHT22;1597;51.572;6.992;2022-07-06T12:24:37;21.00;1.00
3172;DHT22;1597;51.572;6.992;2022-07-06T12:27:19;21.10;1.00
3172;DHT22;1597;51.572;6.992;2022-07-06T12:29:48;21.30;1.00
3172;DHT22;1597;51.572;6.992;2022-07-06T12:32:18;21.40;1.00
3172;DHT22;1597;51.572;6.992;2022-07-06T12:34:56;21.50;1.00
3172;DHT22;1597;51.572;6.992;2022-07-06T12:37:28;21.60;1.00
3172;DHT22;1597;51.572;6.992;2022-07-06T12:39:54;21.70;1.00
3172;DHT22;1597;51.572;6.992;2022-07-06T12:42:20;21.70;1.00
3172;DHT22;1597;51.572;6.992;2022-07-06T12:44:52;21.60;1.00
3172;DHT22;1597;51.572;6.992;2022-07-06T12:47:23;21.50;1.00
3172;DHT22;1597;51.572;6.992;2022-07-06T12:52:31;21.50;1.00
3172;DHT22;1597;51.572;6.992;2022-07-06T12:55:00;21.50;1.00
3172;DHT22;1597;51.572;6.992;2022-07-06T12:57:41;21.50;1.00
3172;DHT22;1597;51.572;6.992;2022-07-06T13:00:08;21.50;1.00
3172;DHT22;1597;51.572;6.992;2022-07-06T13:02:35;21.50;1.00
3172;DHT22;1597;51.572;6.992;2022-07-06T13:05:09;21.60;1.00
3172;DHT22;1597;51.572;6.992;2022-07-06T13:07:38;21.70;1.00
3172;DHT22;1597;51.572;6.992;2022-07-06T13:10:07;21.70;1.00
3172;DHT22;1597;51.572;6.992;2022-07-06T13:12:35;21.80;1.00
3172;DHT22;1597;51.572;6.992;2022-07-06T13:15:03;21.80;1.00
3172;DHT22;1597;51.572;6.992;2022-07-06T13:17:30;21.80;1.00
3172;DHT22;1597;51.572;6.992;2022-07-06T13:19:56;21.70;1.00
3172;DHT22;1597;51.572;6.992;2022-07-06T13:22:22;21.60;1.00
3172;DHT22;1597;51.572;6.992;2022-07-06T13:24:48;21.60;1.00
3172;DHT22;1597;51.572;6.992;2022-07-06T13:27:14;21.60;1.00
3172;DHT22;1597;51.572;6.992;2022-07-06T13:32:22;22.00;1.00
3172;DHT22;1597;51.572;6.992;2022-07-06T13:34:49;22.10;1.00
3172;DHT22;1597;51.572;6.992;2022-07-06T13:37:15;22.00;1.00
3172;DHT22;1597;51.572;6.992;2022-07-06T13:39:40;21.80;1.00
3172;DHT22;1597;51.572;6.992;2022-07-06T13:42:06;21.90;1.00
3172;DHT22;1597;51.572;6.992;2022-07-06T13:44:35;21.90;1.00
3172;DHT22;1597;51.572;6.992;2022-07-06T13:47:01;21.90;1.00
3172;DHT22;1597;51.572;6.992;2022-07-06T13:49:30;21.90;1.00
3172;DHT22;1597;51.572;6.992;2022-07-06T13:51:56;22.00;1.00
3172;DHT22;1597;51.572;6.992;2022-07-06T13:54:29;21.90;1.00
3172;DHT22;1597;51.572;6.992;2022-07-06T13:56:55;21.90;1.00
3172;DHT22;1597;51.572;6.992;2022-07-06T13:59:21;22.00;1.00
3172;DHT22;1597;51.572;6.992;2022-07-06T14:01:47;22.20;1.00
3172;DHT22;1597;51.572;6.992;2022-07-06T14:04:13;22.10;1.00
3172;DHT22;1597;51.572;6.992;2022-07-06T14:06:39;22.10;1.00
3172;DHT22;1597;51.572;6.992;2022-07-06T14:09:06;22.20;1.00
3172;DHT22;1597;51.572;6.992;2022-07-06T14:11:33;22.30;1.00
3172;DHT22;1597;51.572;6.992;2022-07-06T14:13:59;22.30;1.00
3172;DHT22;1597;51.572;6.992;2022-07-06T14:16:26;22.30;1.00
3172;DHT22;1597;51.572;6.992;2022-07-06T14:18:52;22.10;1.00
3172;DHT22;1597;51.572;6.992;2022-07-06T14:21:18;21.90;1.00
3172;DHT22;1597;51.572;6.992;2022-07-06T14:23:44;21.90;1.00
3172;DHT22;1597;51.572;6.992;2022-07-06T14:26:10;21.90;1.00
3172;DHT22;1597;51.572;6.992;2022-07-06T14:28:35;21.80;1.00
3172;DHT22;1597;51.572;6.992;2022-07-06T14:31:02;21.80;1.00
3172;DHT22;1597;51.572;6.992;2022-07-06T14:33:29;22.00;1.00
3172;DHT22;1597;51.572;6.992;2022-07-06T14:35:55;22.20;1.00
3172;DHT22;1597;51.572;6.992;2022-07-06T14:38:21;22.30;1.00
3172;DHT22;1597;51.572;6.992;2022-07-06T14:40:48;22.30;1.00
3172;DHT22;1597;51.572;6.992;2022-07-06T14:43:15;22.40;1.00
3172;DHT22;1597;51.572;6.992;2022-07-06T14:45:45;22.50;1.00
3172;DHT22;1597;51.572;6.992;2022-07-06T14:48:12;22.50;1.00
3172;DHT22;1597;51.572;6.992;2022-07-06T14:50:39;22.40;1.00
3172;DHT22;1597;51.572;6.992;2022-07-06T14:53:05;22.20;1.00
3172;DHT22;1597;51.572;6.992;2022-07-06T14:55:31;22.00;1.00
3172;DHT22;1597;51.572;6.992;2022-07-06T14:57:57;21.90;1.00
3172;DHT22;1597;51.572;6.992;2022-07-06T15:00:23;21.80;1.00
3172;DHT22;1597;51.572;6.992;2022-07-06T15:02:49;21.90;1.00
3172;DHT22;1597;51.572;6.992;2022-07-06T15:05:15;22.10;1.00
3172;DHT22;1597;51.572;6.992;2022-07-06T15:07:41;22.10;1.00
3172;DHT22;1597;51.572;6.992;2022-07-06T15:10:07;22.10;1.00
3172;DHT22;1597;51.572;6.992;2022-07-06T15:12:34;22.20;1.00
3172;DHT22;1597;51.572;6.992;2022-07-06T15:15:00;22.30;1.00
3172;DHT22;1597;51.572;6.992;2022-07-06T15:17:26;22.50;1.00
3172;DHT22;1597;51.572;6.992;2022-07-06T15:19:52;22.60;1.00
3172;DHT22;1597;51.572;6.992;2022-07-06T15:22:18;22.60;1.00
3172;DHT22;1597;51.572;6.992;2022-07-06T15:24:44;22.60;1.00
3172;DHT22;1597;51.572;6.992;2022-07-06T15:27:10;22.40;1.00
3172;DHT22;1597;51.572;6.992;2022-07-06T15:29:37;22.20;1.00
3172;DHT22;1597;51.572;6.992;2022-07-06T15:32:03;22.20;1.00
3172;DHT22;1597;51.572;6.992;2022-07-06T15:34:29;22.20;1.00
3172;DHT22;1597;51.572;6.992;2022-07-06T15:36:55;22.30;1.00
3172;DHT22;1597;51.572;6.992;2022-07-06T15:39:21;22.30;1.00
3172;DHT22;1597;51.572;6.992;2022-07-06T15:41:47;22.20;1.00
3172;DHT22;1597;51.572;6.992;2022-07-06T15:44:13;22.30;1.00
3172;DHT22;1597;51.572;6.992;2022-07-06T15:46:40;22.20;1.00
3172;DHT22;1597;51.572;6.992;2022-07-06T15:49:06;22.30;1.00
3172;DHT22;1597;51.572;6.992;2022-07-06T15:51:32;22.20;1.00
3172;DHT22;1597;51.572;6.992;2022-07-06T15:54:00;22.20;1.00
3172;DHT22;1597;51.572;6.992;2022-07-06T15:56:26;22.20;1.00
3172;DHT22;1597;51.572;6.992;2022-07-06T15:58:52;22.20;1.00
3172;DHT22;1597;51.572;6.992;2022-07-06T16:01:19;22.10;1.00
3172;DHT22;1597;51.572;6.992;2022-07-06T16:03:45;22.10;1.00
3172;DHT22;1597;51.572;6.992;2022-07-06T16:06:11;22.20;1.00
3172;DHT22;1597;51.572;6.992;2022-07-06T16:08:41;22.20;1.00
3172;DHT22;1597;51.572;6.992;2022-07-06T16:11:07;22.30;1.00
3172;DHT22;1597;51.572;6.992;2022-07-06T16:13:34;22.30;1.00
3172;DHT22;1597;51.572;6.992;2022-07-06T16:16:00;22.30;1.00
3172;DHT22;1597;51.572;6.992;2022-07-06T16:18:26;22.20;1.00
3172;DHT22;1597;51.572;6.992;2022-07-06T16:20:52;22.20;1.00
3172;DHT22;1597;51.572;6.992;2022-07-06T16:23:19;22.20;1.00
3172;DHT22;1597;51.572;6.992;2022-07-06T16:25:45;22.20;1.00